Time;durP1;ratioP1;P1;durP2;ratioP2;P2;SDS_P1;SDS_P2;PMS_P1;PMS_P2;Temp;Humidity;BMP_temperature;BMP_pressure;BME280_temperature;BME280_humidity;BME280_pressure;Samples;Min_cycle;Max_cycle;Signal;HPM_P1;HPM_P2
2024/03/18 00:02:01;;;;;;;18.02;12.07;;;11.00;94.50;;;;;;5052157;28;20387;-76
2024/03/18 00:04:27;;;;;;;19.35;12.30;;;10.90;96.70;;;;;;5051333;28;20421;-76
2024/03/18 00:06:52;;;;;;;20.83;12.23;;;10.80;99.90;;;;;;5035962;28;20897;-74
2024/03/18 00:09:18;;;;;;;21.60;12.40;;;10.80;99.90;;;;;;5031591;28;20399;-75
2024/03/18 00:11:43;;;;;;;23.43;13.87;;;10.70;99.90;;;;;;5034086;28;20714;-77
2024/03/18 00:14:09;;;;;;;19.30;12.35;;;10.70;99.90;;;;;;5034072;28;20426;-76
2024/03/18 00:16:35;;;;;;;21.65;12.88;;;10.70;99.90;;;;;;5036217;28;20409;-76
2024/03/18 00:19:01;;;;;;;20.67;12.82;;;10.70;99.90;;;;;;5034386;28;20390;-76
2024/03/18 00:21:26;;;;;;;21.50;13.67;;;10.70;99.90;;;;;;5035152;28;20395;-77
2024/03/18 00:23:52;;;;;;;24.60;14.20;;;10.70;99.90;;;;;;5034519;28;20440;-74
2024/03/18 00:26:17;;;;;;;25.90;14.77;;;10.70;99.90;;;;;;5034565;28;20395;-74
2024/03/18 00:28:43;;;;;;;22.05;14.35;;;10.60;99.90;;;;;;5032942;28;20391;-75
2024/03/18 00:31:10;;;;;;;23.77;14.65;;;10.60;99.90;;;;;;5034081;28;20402;-75
2024/03/18 00:33:36;;;;;;;25.15;15.27;;;10.60;99.90;;;;;;5000162;28;20770;-76
2024/03/18 00:36:02;;;;;;;26.50;15.00;;;10.60;99.90;;;;;;5033998;28;20403;-76
2024/03/18 00:38:27;;;;;;;26.73;15.70;;;10.60;99.90;;;;;;5034245;28;20880;-76
2024/03/18 00:43:38;;;;;;;30.73;16.90;;;10.60;99.90;;;;;;5034118;28;20460;-77
2024/03/18 00:46:04;;;;;;;28.65;15.88;;;10.60;99.90;;;;;;5034175;28;20387;-76
2024/03/18 00:48:30;;;;;;;26.80;15.18;;;10.60;99.90;;;;;;5034020;28;20487;-76
2024/03/18 00:50:55;;;;;;;27.33;15.95;;;10.60;99.90;;;;;;5033564;28;20426;-76
2024/03/18 00:53:21;;;;;;;27.63;15.57;;;10.60;99.90;;;;;;5015980;28;20955;-77
2024/03/18 00:55:47;;;;;;;26.20;16.38;;;10.50;99.90;;;;;;5033639;28;20414;-76
2024/03/18 00:58:13;;;;;;;28.40;16.23;;;10.50;99.90;;;;;;5034303;28;20395;-75
2024/03/18 01:00:38;;;;;;;24.27;14.70;;;10.50;99.90;;;;;;5015826;28;20383;-75
2024/03/18 01:03:04;;;;;;;23.92;14.85;;;10.60;99.90;;;;;;5033411;28;20387;-76
2024/03/18 01:05:30;;;;;;;22.85;13.68;;;10.50;99.90;;;;;;5033602;28;20415;-75
2024/03/18 01:07:56;;;;;;;26.17;15.20;;;10.50;99.90;;;;;;5033645;28;20418;-75
2024/03/18 01:10:22;;;;;;;24.93;15.37;;;10.50;99.90;;;;;;5033276;28;20780;-76
2024/03/18 01:12:47;;;;;;;24.07;14.57;;;10.50;99.90;;;;;;5033872;28;20459;-76
2024/03/18 01:15:14;;;;;;;22.40;14.50;;;10.50;99.90;;;;;;5033565;28;20402;-74
2024/03/18 01:17:40;;;;;;;22.23;13.93;;;10.50;99.90;;;;;;5033171;28;20383;-75
2024/03/18 01:20:14;;;;;;;20.13;13.63;;;10.50;99.90;;;;;;5033102;28;20433;-76
2024/03/18 01:22:40;;;;;;;24.48;14.80;;;10.50;99.90;;;;;;5032624;28;20893;-75
2024/03/18 01:25:06;;;;;;;22.13;14.23;;;10.50;99.90;;;;;;5033314;28;20403;-75
2024/03/18 01:27:31;;;;;;;23.10;13.30;;;10.50;99.90;;;;;;5031997;28;20781;-75
2024/03/18 01:29:57;;;;;;;25.70;15.57;;;10.50;99.90;;;;;;5033222;28;20413;-75
2024/03/18 01:32:22;;;;;;;23.53;14.50;;;10.60;99.90;;;;;;5032804;28;20387;-76
2024/03/18 01:34:49;;;;;;;22.95;14.40;;;10.50;99.90;;;;;;5033027;28;20815;-75
2024/03/18 01:37:14;;;;;;;43.00;20.88;;;10.50;99.90;;;;;;5032963;28;20509;-75
2024/03/18 01:39:40;;;;;;;20.65;13.45;;;10.50;99.90;;;;;;5033031;28;20429;-76
2024/03/18 01:42:06;;;;;;;21.08;13.75;;;10.60;99.90;;;;;;5033399;28;20395;-75
2024/03/18 01:44:31;;;;;;;26.63;14.43;;;10.50;99.90;;;;;;5033012;28;20391;-76
2024/03/18 01:46:57;;;;;;;21.75;13.27;;;10.50;99.90;;;;;;5033138;28;20415;-76
2024/03/18 01:49:23;;;;;;;19.95;13.55;;;10.50;99.90;;;;;;5033184;28;20376;-74
2024/03/18 01:51:49;;;;;;;23.75;12.65;;;10.50;99.90;;;;;;5015153;28;20391;-76
2024/03/18 01:54:16;;;;;;;19.15;12.48;;;10.50;99.90;;;;;;5032757;28;20766;-75
2024/03/18 01:56:42;;;;;;;21.23;12.48;;;10.40;99.90;;;;;;5034254;28;20889;-76
2024/03/18 01:59:10;;;;;;;29.83;14.30;;;10.50;99.90;;;;;;5038141;28;20394;-76
2024/03/18 02:01:36;;;;;;;20.23;12.85;;;10.50;99.90;;;;;;5027148;28;20398;-75
2024/03/18 02:04:09;;;;;;;20.48;13.93;;;10.50;99.90;;;;;;5047804;28;20383;-75
2024/03/18 02:06:36;;;;;;;19.27;12.50;;;10.50;99.90;;;;;;5048071;28;20425;-75
2024/03/18 02:09:03;;;;;;;19.13;12.43;;;10.50;99.90;;;;;;5043192;28;20388;-74
2024/03/18 02:11:28;;;;;;;23.67;12.70;;;10.50;99.90;;;;;;5035868;28;20387;-75
2024/03/18 02:13:54;;;;;;;19.17;12.70;;;10.50;99.90;;;;;;5036159;28;20399;-76
2024/03/18 02:16:20;;;;;;;16.50;11.63;;;10.50;99.90;;;;;;5037910;28;20441;-73
2024/03/18 02:18:46;;;;;;;21.92;12.27;;;10.50;99.90;;;;;;5032988;28;20403;-76
2024/03/18 02:21:11;;;;;;;19.13;12.00;;;10.50;99.90;;;;;;5033804;28;20414;-75
2024/03/18 02:23:37;;;;;;;24.52;12.70;;;10.60;99.90;;;;;;5047018;23;20590;-70
2024/03/18 02:26:03;;;;;;;23.60;12.83;;;10.50;99.90;;;;;;5032387;28;20394;-70
2024/03/18 02:28:28;;;;;;;20.37;12.00;;;10.60;99.90;;;;;;5032488;28;20378;-72
2024/03/18 02:30:54;;;;;;;18.23;12.13;;;10.60;99.90;;;;;;5033349;28;20932;-71
2024/03/18 02:33:19;;;;;;;19.37;12.17;;;10.60;99.90;;;;;;5033022;28;20379;-70
2024/03/18 02:35:45;;;;;;;18.60;12.03;;;10.60;99.90;;;;;;5015339;28;20974;-69
2024/03/18 02:38:10;;;;;;;19.67;13.00;;;10.70;99.90;;;;;;5032680;28;20383;-71
2024/03/18 02:40:36;;;;;;;19.63;13.05;;;10.70;99.90;;;;;;5033194;28;20877;-69
2024/03/18 02:43:02;;;;;;;20.45;12.82;;;10.80;99.90;;;;;;5035213;28;20383;-69
2024/03/18 02:45:27;;;;;;;22.88;13.25;;;10.70;99.90;;;;;;5033396;28;20394;-71
2024/03/18 02:47:53;;;;;;;18.70;12.40;;;10.80;99.90;;;;;;5014939;28;20391;-70
2024/03/18 02:50:18;;;;;;;18.20;11.73;;;10.90;99.90;;;;;;5032716;28;20410;-70
2024/03/18 02:52:45;;;;;;;17.97;11.80;;;10.80;99.90;;;;;;5032937;28;20383;-70
2024/03/18 02:55:11;;;;;;;18.33;12.93;;;10.80;99.90;;;;;;5032723;28;20410;-69
2024/03/18 02:57:36;;;;;;;19.27;11.80;;;10.80;99.90;;;;;;5032555;28;20383;-70
2024/03/18 03:00:06;;;;;;;17.07;11.10;;;10.80;99.90;;;;;;5032866;28;20746;-69
2024/03/18 03:02:32;;;;;;;16.83;11.18;;;10.90;99.90;;;;;;5015320;28;20731;-70
2024/03/18 03:04:57;;;;;;;18.33;10.95;;;11.10;99.90;;;;;;5032100;28;20470;-70
2024/03/18 03:07:23;;;;;;;18.57;11.93;;;11.10;99.90;;;;;;5032130;28;20525;-71
2024/03/18 03:09:49;;;;;;;19.57;12.40;;;11.00;99.90;;;;;;5031460;28;20449;-70
2024/03/18 03:12:15;;;;;;;19.13;12.40;;;10.80;99.90;;;;;;5031656;28;20394;-70
2024/03/18 03:14:41;;;;;;;21.00;11.07;;;10.80;99.90;;;;;;5032150;28;20402;-71
2024/03/18 03:17:07;;;;;;;19.65;12.10;;;10.70;99.90;;;;;;5031879;28;20800;-69
2024/03/18 03:19:32;;;;;;;20.83;12.95;;;10.70;99.90;;;;;;5031980;28;20433;-71
2024/03/18 03:21:58;;;;;;;18.63;12.00;;;10.70;99.90;;;;;;5031379;28;20403;-69
2024/03/18 03:24:24;;;;;;;19.02;12.50;;;10.80;99.90;;;;;;5031672;28;20379;-71
2024/03/18 03:26:49;;;;;;;20.85;12.10;;;10.80;99.90;;;;;;5031601;28;20375;-70
2024/03/18 03:29:15;;;;;;;18.02;12.05;;;10.80;99.90;;;;;;5031182;28;20395;-70
2024/03/18 03:31:42;;;;;;;21.33;12.60;;;10.90;99.90;;;;;;5031539;28;20413;-71
2024/03/18 03:34:07;;;;;;;17.95;11.88;;;10.80;99.90;;;;;;5031672;28;20454;-70
2024/03/18 03:36:34;;;;;;;16.87;11.10;;;10.80;99.90;;;;;;5032208;28;20502;-70
2024/03/18 03:39:00;;;;;;;19.40;12.02;;;10.70;99.90;;;;;;5031109;28;20386;-70
2024/03/18 03:41:26;;;;;;;20.55;12.18;;;10.70;99.90;;;;;;5031580;28;20866;-69
2024/03/18 03:43:51;;;;;;;17.48;11.27;;;10.70;99.90;;;;;;5031314;28;20383;-71
2024/03/18 03:46:17;;;;;;;20.13;11.32;;;10.70;99.90;;;;;;5031706;28;20379;-69
2024/03/18 03:48:42;;;;;;;17.50;11.82;;;10.70;99.90;;;;;;5031000;28;20450;-70
2024/03/18 03:51:08;;;;;;;17.13;11.23;;;10.80;99.90;;;;;;5033580;28;20383;-71
2024/03/18 03:53:35;;;;;;;19.00;11.00;;;10.80;99.90;;;;;;5034757;28;20383;-69
2024/03/18 03:56:00;;;;;;;16.38;10.32;;;10.80;99.90;;;;;;5035778;28;20407;-71
2024/03/18 03:58:27;;;;;;;18.65;11.10;;;10.80;99.90;;;;;;5035408;28;20757;-71
2024/03/18 04:00:53;;;;;;;17.40;10.93;;;10.80;99.90;;;;;;5034449;28;20921;-70
2024/03/18 04:03:27;;;;;;;20.43;11.27;;;10.70;99.90;;;;;;5034871;28;20516;-70
2024/03/18 04:05:56;;;;;;;17.50;10.88;;;10.70;99.90;;;;;;5035278;28;20411;-71
2024/03/18 04:08:22;;;;;;;19.02;10.73;;;10.70;99.90;;;;;;5036209;28;20379;-69
2024/03/18 04:10:48;;;;;;;19.20;11.90;;;10.80;99.90;;;;;;5035420;28;20383;-70
2024/03/18 04:13:15;;;;;;;17.25;11.05;;;10.70;99.90;;;;;;5039146;28;20431;-70
2024/03/18 04:15:42;;;;;;;17.48;11.73;;;10.80;99.90;;;;;;5039427;28;20768;-70
2024/03/18 04:18:08;;;;;;;18.65;11.40;;;10.80;99.90;;;;;;5020315;28;20868;-70
2024/03/18 04:20:34;;;;;;;22.48;12.30;;;10.80;99.90;;;;;;5034644;28;20412;-69
2024/03/18 04:23:00;;;;;;;19.10;11.48;;;10.80;99.90;;;;;;5034777;28;20449;-70
2024/03/18 04:25:26;;;;;;;20.55;12.75;;;10.80;99.90;;;;;;5034998;28;20379;-70
2024/03/18 04:27:52;;;;;;;20.27;11.90;;;10.80;99.90;;;;;;5034936;28;20394;-70
2024/03/18 04:30:19;;;;;;;21.08;13.20;;;10.80;99.90;;;;;;5034535;28;20437;-69
2024/03/18 04:32:48;;;;;;;18.10;11.85;;;10.80;99.90;;;;;;5034471;28;20402;-71
2024/03/18 04:35:14;;;;;;;22.50;12.10;;;10.80;99.90;;;;;;5035249;28;20541;-70
2024/03/18 04:37:46;;;;;;;19.70;12.13;;;10.80;99.90;;;;;;5035320;28;20394;-70
2024/03/18 04:40:13;;;;;;;21.23;12.75;;;10.80;99.90;;;;;;5017873;28;20383;-70
2024/03/18 04:42:39;;;;;;;22.10;13.10;;;10.80;99.90;;;;;;5016737;28;20421;-69
2024/03/18 04:45:06;;;;;;;20.67;11.82;;;10.80;99.90;;;;;;5034605;28;20379;-70
2024/03/18 04:47:41;;;;;;;20.25;12.48;;;10.80;99.90;;;;;;5034853;28;20885;-70
2024/03/18 04:50:10;;;;;;;20.52;11.95;;;10.80;99.90;;;;;;4999803;28;20402;-70
2024/03/18 04:52:35;;;;;;;19.00;12.40;;;10.80;99.90;;;;;;5034306;28;20395;-70
2024/03/18 04:55:05;;;;;;;18.43;11.40;;;10.80;99.90;;;;;;5034010;28;20413;-71
2024/03/18 04:57:34;;;;;;;19.38;12.23;;;10.80;99.90;;;;;;5034351;28;20379;-70
2024/03/18 05:00:00;;;;;;;20.35;12.95;;;10.90;99.90;;;;;;5017493;28;20395;-70
2024/03/18 05:02:29;;;;;;;22.40;12.80;;;10.80;99.90;;;;;;5015691;28;20387;-70
2024/03/18 05:04:54;;;;;;;23.05;13.25;;;10.80;99.90;;;;;;5034099;28;20379;-71
2024/03/18 05:07:20;;;;;;;21.07;12.83;;;10.80;99.90;;;;;;5033931;28;20482;-72
2024/03/18 05:09:46;;;;;;;20.17;11.75;;;10.80;99.90;;;;;;5033714;28;20395;-70
2024/03/18 05:12:12;;;;;;;21.92;13.68;;;10.80;99.90;;;;;;5033571;28;20403;-69
2024/03/18 05:14:41;;;;;;;21.50;12.90;;;10.80;99.90;;;;;;5020552;28;20395;-70
2024/03/18 05:17:07;;;;;;;21.30;13.30;;;10.90;99.90;;;;;;5048338;28;20390;-69
2024/03/18 05:19:33;;;;;;;20.98;12.57;;;10.80;99.90;;;;;;5052883;28;20394;-70
2024/03/18 05:21:58;;;;;;;19.25;12.90;;;10.90;99.90;;;;;;5036480;28;20422;-70
2024/03/18 05:24:24;;;;;;;19.33;12.13;;;10.90;99.90;;;;;;5033706;28;20390;-70
2024/03/18 05:26:49;;;;;;;19.52;13.13;;;10.90;99.90;;;;;;5034315;28;20391;-70
2024/03/18 05:29:15;;;;;;;21.27;13.10;;;10.90;99.90;;;;;;5016275;28;20944;-69
2024/03/18 05:31:41;;;;;;;22.10;13.77;;;10.90;99.90;;;;;;5015482;28;20429;-70
2024/03/18 05:34:08;;;;;;;24.45;13.02;;;10.90;99.90;;;;;;5034153;28;20469;-70
2024/03/18 05:36:34;;;;;;;23.52;13.65;;;10.90;99.90;;;;;;5033983;28;20809;-72
2024/03/18 05:38:59;;;;;;;23.70;13.63;;;10.90;99.90;;;;;;5031114;28;20449;-69
2024/03/18 05:41:25;;;;;;;19.10;12.50;;;10.90;99.90;;;;;;5005216;28;20455;-70
2024/03/18 05:43:51;;;;;;;20.55;12.90;;;10.80;99.90;;;;;;5026500;28;20393;-70
2024/03/18 05:46:18;;;;;;;21.67;13.27;;;10.80;99.90;;;;;;5041080;28;20414;-70
2024/03/18 05:48:43;;;;;;;22.35;13.70;;;10.80;99.90;;;;;;5033355;28;20427;-70
2024/03/18 05:51:09;;;;;;;26.50;14.10;;;10.80;99.90;;;;;;5032216;28;20442;-71
2024/03/18 05:53:35;;;;;;;20.60;13.70;;;10.80;99.90;;;;;;5013462;28;20405;-68
2024/03/18 05:56:00;;;;;;;21.53;13.60;;;10.90;99.90;;;;;;5018771;28;20811;-72
2024/03/18 05:58:26;;;;;;;20.87;13.50;;;10.90;99.90;;;;;;5020538;28;20392;-70
2024/03/18 06:00:51;;;;;;;22.23;13.77;;;11.00;99.90;;;;;;5013144;28;20425;-70
2024/03/18 06:03:17;;;;;;;23.77;15.20;;;11.00;99.90;;;;;;5031863;28;20444;-71
2024/03/18 06:05:43;;;;;;;19.60;13.65;;;11.10;99.90;;;;;;5032635;28;20398;-70
2024/03/18 06:08:08;;;;;;;22.15;14.00;;;11.10;99.90;;;;;;5032873;28;20390;-71
2024/03/18 06:10:34;;;;;;;22.27;14.50;;;11.10;99.90;;;;;;5016335;28;20777;-70
2024/03/18 06:12:59;;;;;;;23.37;14.37;;;11.10;99.90;;;;;;5010681;28;20406;-71
2024/03/18 06:15:25;;;;;;;21.67;13.20;;;11.10;99.90;;;;;;5032769;28;20514;-72
2024/03/18 06:17:51;;;;;;;24.30;13.98;;;11.10;99.90;;;;;;5032594;28;20398;-69
2024/03/18 06:20:17;;;;;;;21.95;13.15;;;11.10;99.90;;;;;;5023554;28;20379;-69
2024/03/18 06:22:46;;;;;;;24.67;14.48;;;11.20;99.90;;;;;;5000052;28;20887;-70
2024/03/18 06:27:59;;;;;;;22.77;13.80;;;11.20;99.90;;;;;;5038152;28;20397;-70
2024/03/18 06:30:24;;;;;;;23.13;14.10;;;11.20;99.90;;;;;;5053155;28;20429;-70
2024/03/18 06:32:50;;;;;;;22.00;14.47;;;11.30;99.90;;;;;;5037911;28;20391;-70
2024/03/18 06:35:15;;;;;;;24.33;15.40;;;11.30;99.90;;;;;;5054522;28;20457;-71
2024/03/18 06:37:41;;;;;;;23.33;15.00;;;11.40;99.90;;;;;;5052920;28;20387;-72
2024/03/18 06:40:07;;;;;;;26.85;16.00;;;11.40;99.90;;;;;;5054003;28;20379;-70
2024/03/18 06:42:34;;;;;;;21.00;13.10;;;11.50;99.60;;;;;;5054407;28;20434;-69
2024/03/18 06:45:00;;;;;;;21.63;12.88;;;11.50;99.00;;;;;;5054360;28;20947;-70
2024/03/18 06:47:26;;;;;;;24.15;14.48;;;11.50;99.10;;;;;;5055080;28;20403;-70
2024/03/18 06:49:52;;;;;;;22.90;14.85;;;11.60;98.50;;;;;;5051045;28;20411;-70
2024/03/18 06:52:17;;;;;;;23.60;15.00;;;11.60;97.90;;;;;;5052911;28;20383;-70
2024/03/18 06:54:43;;;;;;;21.67;14.02;;;11.70;96.60;;;;;;5053772;28;20437;-69
2024/03/18 06:57:10;;;;;;;18.13;12.82;;;11.90;92.50;;;;;;5054589;28;20455;-69
2024/03/18 06:59:35;;;;;;;21.02;12.80;;;11.80;93.60;;;;;;5042649;28;20395;-70
2024/03/18 07:02:03;;;;;;;20.15;13.23;;;11.90;93.90;;;;;;5030977;28;20380;-71
2024/03/18 07:04:28;;;;;;;20.90;14.10;;;11.90;91.80;;;;;;5013327;28;20387;-70
2024/03/18 07:06:54;;;;;;;23.00;14.30;;;12.00;92.20;;;;;;5032792;28;20385;-70
2024/03/18 07:09:20;;;;;;;25.83;15.20;;;12.00;92.20;;;;;;5032355;28;20486;-70
2024/03/18 07:11:46;;;;;;;19.57;13.20;;;12.00;91.20;;;;;;5035373;28;20931;-70
2024/03/18 07:14:13;;;;;;;20.57;12.70;;;12.10;91.60;;;;;;5052988;28;20382;-70
2024/03/18 07:16:39;;;;;;;23.45;14.48;;;12.10;90.40;;;;;;5047714;28;20446;-70
2024/03/18 07:19:04;;;;;;;20.00;13.30;;;12.10;90.60;;;;;;5030747;28;20851;-71
2024/03/18 07:21:30;;;;;;;23.30;14.70;;;12.20;89.60;;;;;;5030753;28;20390;-70
2024/03/18 07:23:56;;;;;;;21.70;14.07;;;12.20;89.00;;;;;;5030848;28;20403;-70
2024/03/18 07:26:22;;;;;;;20.45;13.52;;;12.30;88.80;;;;;;5030765;28;20386;-71
2024/03/18 07:28:47;;;;;;;23.67;14.57;;;12.30;87.80;;;;;;5029685;28;20487;-71
2024/03/18 07:31:13;;;;;;;23.17;13.85;;;12.40;87.00;;;;;;5032020;28;20477;-71
2024/03/18 07:33:40;;;;;;;22.73;13.70;;;12.40;87.30;;;;;;5014999;28;20475;-71
2024/03/18 07:36:06;;;;;;;23.93;14.27;;;12.50;86.60;;;;;;5031590;28;20407;-71
2024/03/18 07:38:32;;;;;;;26.30;14.80;;;12.50;85.50;;;;;;5032475;28;20518;-70
2024/03/18 07:40:58;;;;;;;23.63;14.50;;;12.50;85.40;;;;;;5030819;28;20375;-71
2024/03/18 07:43:24;;;;;;;21.48;14.15;;;12.50;85.40;;;;;;5031613;28;20441;-70
2024/03/18 07:45:49;;;;;;;23.20;14.03;;;12.60;84.80;;;;;;5031757;28;20387;-69
2024/03/18 07:48:15;;;;;;;19.52;13.23;;;12.60;84.20;;;;;;5032846;28;20394;-73
2024/03/18 07:50:40;;;;;;;23.48;14.93;;;12.70;83.70;;;;;;5031514;28;20383;-71
2024/03/18 07:53:06;;;;;;;23.73;14.77;;;12.80;81.60;;;;;;5031011;28;20861;-70
2024/03/18 07:55:32;;;;;;;22.40;14.70;;;12.90;79.80;;;;;;5033264;28;20486;-70
2024/03/18 07:57:57;;;;;;;26.17;14.87;;;12.80;80.40;;;;;;5031086;28;20383;-70
2024/03/18 08:00:23;;;;;;;23.33;15.15;;;12.80;81.30;;;;;;5030664;28;20747;-70
2024/03/18 08:02:49;;;;;;;23.33;14.77;;;12.80;81.90;;;;;;5032334;28;20408;-70
2024/03/18 08:05:15;;;;;;;23.33;14.70;;;12.80;82.00;;;;;;5031753;28;20383;-71
2024/03/18 08:07:40;;;;;;;21.90;13.90;;;12.80;82.20;;;;;;5031166;28;20400;-70
2024/03/18 08:10:06;;;;;;;21.40;13.40;;;12.80;81.40;;;;;;5030773;28;20474;-70
2024/03/18 08:12:32;;;;;;;22.40;14.70;;;12.80;81.80;;;;;;5031821;28;20387;-70
2024/03/18 08:14:58;;;;;;;21.57;15.10;;;12.90;81.70;;;;;;5033093;28;20810;-71
2024/03/18 08:17:23;;;;;;;23.27;15.40;;;13.00;80.70;;;;;;5034534;28;20390;-71
2024/03/18 08:19:49;;;;;;;27.40;17.02;;;13.30;79.80;;;;;;5033949;28;20379;-70
2024/03/18 08:22:16;;;;;;;26.25;16.92;;;13.50;77.20;;;;;;5032789;28;20774;-70
2024/03/18 08:24:49;;;;;;;26.90;16.63;;;13.70;73.60;;;;;;5030047;28;20454;-71
2024/03/18 08:27:14;;;;;;;24.33;15.50;;;13.90;69.50;;;;;;5030199;28;20387;-70
2024/03/18 08:29:40;;;;;;;23.75;14.75;;;14.00;68.60;;;;;;5030548;28;20391;-71
2024/03/18 08:32:06;;;;;;;26.40;15.55;;;14.10;67.00;;;;;;5031374;28;20387;-71
2024/03/18 08:34:32;;;;;;;24.40;15.73;;;14.20;65.50;;;;;;5033117;28;20442;-72
2024/03/18 08:36:59;;;;;;;23.17;15.20;;;14.30;64.80;;;;;;5036642;28;20391;-71
2024/03/18 08:39:27;;;;;;;26.20;15.32;;;14.30;64.80;;;;;;5037888;28;20596;-72
2024/03/18 08:41:53;;;;;;;25.75;17.13;;;14.40;64.90;;;;;;5038224;28;20505;-72
2024/03/18 08:44:18;;;;;;;23.33;14.67;;;14.60;64.50;;;;;;5037880;28;20862;-72
2024/03/18 08:46:44;;;;;;;22.77;15.30;;;14.70;61.20;;;;;;5037312;28;20765;-71
2024/03/18 08:49:13;;;;;;;23.03;15.03;;;14.70;61.30;;;;;;5033893;28;20464;-71
2024/03/18 08:51:40;;;;;;;25.83;16.40;;;14.60;61.80;;;;;;5033068;28;20414;-71
2024/03/18 08:54:06;;;;;;;26.60;17.50;;;14.40;62.70;;;;;;5033292;28;20449;-71
2024/03/18 08:56:32;;;;;;;31.48;19.20;;;14.30;62.90;;;;;;5033030;28;20407;-71
2024/03/18 08:58:58;;;;;;;25.35;15.38;;;14.20;65.10;;;;;;5032936;28;20930;-72
2024/03/18 09:01:23;;;;;;;25.25;16.60;;;14.30;65.00;;;;;;5033330;28;20474;-71
2024/03/18 09:03:49;;;;;;;30.20;17.35;;;14.40;63.70;;;;;;5033521;28;20892;-73
2024/03/18 09:06:16;;;;;;;28.93;19.07;;;14.40;63.80;;;;;;5033639;28;20437;-72
2024/03/18 09:08:45;;;;;;;25.15;16.35;;;14.60;61.40;;;;;;5033183;28;20394;-72
2024/03/18 09:11:11;;;;;;;32.08;18.10;;;14.80;61.80;;;;;;5033078;28;20375;-72
2024/03/18 09:13:36;;;;;;;30.35;18.50;;;15.00;57.60;;;;;;5032908;28;20395;-71
2024/03/18 09:16:03;;;;;;;23.43;16.40;;;15.00;57.70;;;;;;5033112;28;20457;-71
2024/03/18 09:18:29;;;;;;;29.90;16.97;;;15.20;56.90;;;;;;5032826;28;20777;-72
2024/03/18 09:20:56;;;;;;;27.97;18.40;;;15.40;55.00;;;;;;5033276;28;20430;-71
2024/03/18 09:23:22;;;;;;;23.55;17.15;;;15.40;54.10;;;;;;5032959;28;20398;-71
2024/03/18 09:25:48;;;;;;;28.83;18.60;;;15.50;54.00;;;;;;5032685;28;20927;-72
2024/03/18 09:28:14;;;;;;;24.35;16.23;;;15.50;53.20;;;;;;5032628;28;20395;-71
2024/03/18 09:30:40;;;;;;;31.38;17.45;;;15.50;51.50;;;;;;5032293;28;20474;-71
2024/03/18 09:33:05;;;;;;;26.65;16.15;;;15.20;52.30;;;;;;5034794;28;20892;-71
2024/03/18 09:35:31;;;;;;;35.20;19.35;;;15.00;53.30;;;;;;5032563;28;20484;-72
2024/03/18 09:37:57;;;;;;;26.50;17.57;;;15.00;55.00;;;;;;5015110;28;20383;-71
2024/03/18 09:40:28;;;;;;;30.90;17.57;;;15.10;54.70;;;;;;5032909;28;20390;-72
2024/03/18 09:42:54;;;;;;;23.52;14.68;;;15.30;54.10;;;;;;5032316;28;20939;-72
2024/03/18 09:45:22;;;;;;;28.33;17.17;;;15.60;50.90;;;;;;5032320;28;20383;-71
2024/03/18 09:47:48;;;;;;;27.10;14.13;;;15.90;49.20;;;;;;5031150;28;20429;-71
2024/03/18 09:50:16;;;;;;;25.35;14.10;;;16.20;45.90;;;;;;5014001;28;20393;-71
2024/03/18 09:52:43;;;;;;;25.27;13.70;;;16.20;45.00;;;;;;5014507;28;20795;-71
2024/03/18 09:55:23;;;;;;;23.85;13.45;;;16.20;45.90;;;;;;5032423;28;20857;-71
2024/03/18 09:57:49;;;;;;;21.45;13.27;;;16.30;45.10;;;;;;5032108;28;20478;-71
2024/03/18 10:00:20;;;;;;;19.40;10.60;;;16.40;44.60;;;;;;5031935;28;20391;-71
2024/03/18 10:02:46;;;;;;;21.50;10.35;;;16.70;41.70;;;;;;5031933;28;20382;-70
2024/03/18 10:05:12;;;;;;;17.65;10.02;;;17.30;38.90;;;;;;5031974;28;20450;-71
2024/03/18 10:07:41;;;;;;;16.77;9.15;;;16.90;39.10;;;;;;5032154;28;20427;-71
2024/03/18 10:10:17;;;;;;;16.27;7.75;;;16.80;39.40;;;;;;5036047;28;20398;-71
2024/03/18 10:12:43;;;;;;;20.48;9.70;;;16.70;39.00;;;;;;5047391;28;20824;-71
2024/03/18 10:15:13;;;;;;;24.02;9.80;;;16.50;42.40;;;;;;5035759;28;20406;-71
2024/03/18 10:17:40;;;;;;;16.85;9.43;;;16.30;41.90;;;;;;5031780;28;20385;-72
2024/03/18 10:20:22;;;;;;;16.90;9.20;;;16.50;42.00;;;;;;5031206;28;20889;-71
2024/03/18 10:22:49;;;;;;;13.77;7.82;;;16.70;41.20;;;;;;5031298;28;20881;-71
2024/03/18 10:25:17;;;;;;;12.00;6.85;;;16.90;39.80;;;;;;5031653;28;20797;-72
2024/03/18 10:27:43;;;;;;;14.75;5.05;;;16.90;38.90;;;;;;5031426;28;20406;-70
2024/03/18 10:30:13;;;;;;;6.77;3.90;;;16.90;36.40;;;;;;5013302;28;20904;-72
2024/03/18 10:32:42;;;;;;;9.88;4.20;;;16.80;36.50;;;;;;5031070;28;20429;-70
2024/03/18 10:35:26;;;;;;;11.50;4.10;;;16.60;37.30;;;;;;5031071;28;20410;-71
2024/03/18 10:37:57;;;;;;;9.18;4.00;;;16.40;38.00;;;;;;5031397;28;20383;-71
2024/03/18 10:40:40;;;;;;;8.88;4.40;;;16.40;38.40;;;;;;5031422;28;20390;-70
2024/03/18 10:43:07;;;;;;;9.77;3.45;;;16.40;38.60;;;;;;5031327;28;20383;-72
2024/03/18 10:45:42;;;;;;;6.85;3.00;;;16.70;37.10;;;;;;5013256;28;20482;-70
2024/03/18 10:48:13;;;;;;;10.55;3.60;;;16.90;36.40;;;;;;5031105;28;20426;-70
2024/03/18 10:50:39;;;;;;;5.10;2.65;;;16.90;35.10;;;;;;5012658;28;20405;-71
2024/03/18 10:53:14;;;;;;;8.17;3.30;;;16.80;35.60;;;;;;5031037;28;20394;-70
2024/03/18 10:55:41;;;;;;;6.68;2.72;;;16.50;35.20;;;;;;5013082;28;20497;-71
2024/03/18 10:58:08;;;;;;;6.80;3.45;;;16.20;35.90;;;;;;5031024;28;20398;-71
2024/03/18 11:00:34;;;;;;;10.07;4.43;;;16.00;36.10;;;;;;5012734;28;20375;-71
2024/03/18 11:03:12;;;;;;;9.25;3.90;;;15.90;35.80;;;;;;5030511;28;20488;-70
2024/03/18 11:05:54;;;;;;;8.80;3.30;;;16.10;36.50;;;;;;5030715;28;20391;-70
2024/03/18 11:08:22;;;;;;;6.63;3.85;;;16.50;35.00;;;;;;5030707;28;20402;-71
2024/03/18 11:10:52;;;;;;;7.95;3.85;;;16.70;34.40;;;;;;5030456;28;20877;-71
2024/03/18 11:13:19;;;;;;;11.32;4.15;;;17.10;32.80;;;;;;5030802;28;20391;-71
2024/03/18 11:15:51;;;;;;;10.23;4.40;;;17.20;32.30;;;;;;5029052;28;20407;-71
2024/03/18 11:18:21;;;;;;;12.25;5.40;;;17.10;31.20;;;;;;5030269;28;20387;-71
2024/03/18 11:20:49;;;;;;;10.57;5.60;;;16.80;31.40;;;;;;5030049;28;20379;-72
2024/03/18 11:23:32;;;;;;;9.85;5.47;;;16.80;31.90;;;;;;5030263;28;20754;-70
2024/03/18 11:26:07;;;;;;;12.67;5.27;;;16.80;32.00;;;;;;5030245;28;20551;-71
2024/03/18 11:28:36;;;;;;;8.10;5.60;;;16.90;31.50;;;;;;5030467;28;20398;-72
2024/03/18 11:31:09;;;;;;;9.50;4.90;;;17.00;30.90;;;;;;5030285;28;20390;-71
2024/03/18 11:33:36;;;;;;;10.73;5.38;;;17.10;30.10;;;;;;5012382;28;20391;-71
2024/03/18 11:36:03;;;;;;;9.65;5.80;;;17.30;30.00;;;;;;5030618;28;20403;-71
2024/03/18 11:38:29;;;;;;;9.13;5.93;;;17.30;30.40;;;;;;5031240;28;20787;-71
2024/03/18 11:40:56;;;;;;;11.25;6.60;;;17.20;30.70;;;;;;5029933;28;20395;-71
2024/03/18 11:43:21;;;;;;;9.75;5.25;;;17.10;31.00;;;;;;5028829;28;20441;-70
2024/03/18 11:45:48;;;;;;;10.05;5.00;;;17.10;28.70;;;;;;5030062;28;20391;-71
2024/03/18 11:48:14;;;;;;;8.95;4.60;;;16.90;28.60;;;;;;5030053;28;20932;-70
2024/03/18 11:50:40;;;;;;;8.02;4.60;;;16.90;28.20;;;;;;5029702;28;20391;-70
2024/03/18 11:53:07;;;;;;;10.32;5.20;;;16.80;29.10;;;;;;5030050;28;20443;-71
2024/03/18 11:55:37;;;;;;;9.20;5.30;;;16.90;29.20;;;;;;5029753;28;20403;-71
2024/03/18 11:58:05;;;;;;;8.60;4.80;;;16.90;29.00;;;;;;5030024;28;20432;-71
2024/03/18 12:00:35;;;;;;;11.80;5.80;;;17.10;28.40;;;;;;5029892;28;20398;-71
2024/03/18 12:03:02;;;;;;;8.00;4.70;;;17.00;28.20;;;;;;5029788;28;20401;-72
2024/03/18 12:05:29;;;;;;;10.02;5.53;;;17.10;28.30;;;;;;5030189;28;20391;-72
2024/03/18 12:07:54;;;;;;;12.02;6.70;;;17.30;28.10;;;;;;5029976;28;20394;-70
2024/03/18 12:10:22;;;;;;;13.03;7.60;;;17.30;28.20;;;;;;5029769;28;20402;-72
2024/03/18 12:12:49;;;;;;;12.68;6.72;;;17.20;28.40;;;;;;5033076;28;20386;-71
2024/03/18 12:15:14;;;;;;;14.90;7.53;;;16.90;29.30;;;;;;5033510;28;20496;-71
2024/03/18 12:17:43;;;;;;;12.60;6.60;;;16.80;29.70;;;;;;5033861;28;20901;-71
2024/03/18 12:20:29;;;;;;;11.27;5.60;;;16.80;29.30;;;;;;5033627;28;20383;-71
2024/03/18 12:23:00;;;;;;;14.18;6.35;;;16.90;28.40;;;;;;5033381;28;20410;-71
2024/03/18 12:31:14;;;;;;;12.25;6.90;;;17.00;29.20;;;;;;5033115;28;20815;-70
2024/03/18 12:33:40;;;;;;;14.73;7.15;;;17.10;29.20;;;;;;5033676;28;20444;-71
2024/03/18 12:36:11;;;;;;;12.88;7.88;;;17.30;29.80;;;;;;5033614;28;20403;-71
2024/03/18 12:38:39;;;;;;;19.02;8.75;;;16.70;30.80;;;;;;5033604;28;20436;-71
2024/03/18 12:41:05;;;;;;;18.77;9.50;;;16.60;31.80;;;;;;5033326;28;20380;-71